Amado, Arizona
Current Conditions -  °F | °C
As of 5:54 PM on Wednesday 26 Nov 2014 (Local Time) from KOLS Reporting Station
Clear Clear  
Wind Chill: 64°   Ceiling: Unl
Heat Index: 64°   Visibility: 10mi
Dew Point: 16°   Wind: 0mph
Humidity: 16%   Direction: NA
Pressure: 30.23"   Gusts: NA
Location:  31.71°N, 111.07°W
Report Text: KOLS 270054Z AUTO 00000KT 10SM CLR 18/M09 A3023 RMK AO2 SLP212 T01781089
Loading
Personal Weather Stations






























Interactive Weather Map New forecast layout! Learn more

10-Day Weather Forecast

Advertisements
Track Severe Weather on mobile